Mary Rose Brusco — WDE2412 — position and weather

sailwx.info

Track history (hours):
 
Tides and Currents Weather Stations Pressure Air Temp Water Temp Dewpoint Dewpoint Depression Visibility Wind Speed Wind Dir Waves Ship Positions

Mary Rose Brusco

Owner: Brusco Tug & Barge, Inc., Longview, WA. More information available from US FCC via Universal Licensing System and Coast Guard Vessel Documentation Center.

Last reported at 2014-Dec-19 15:33 UTC. Time now 2014-Dec-20 00:52 UTC.
Position N 47°59' W 122°13'.

Length 20 m; draft 3 m.

Type: Towing. MMSI: 367324840.

Date/timePositionNaut miles runAvg speedWind from/ knotsBaromVisibWave heightAir tempDewpointWater temp
2014-Dec-19 15:33N 47°59' W 122°13'2 1.5
2014-Dec-19 14:32N 47°58' W 122°15'2 1.7
2014-Dec-19 13:33N 47°59' W 122°13'1 0.0
2014-Dec-18 15:34N 47°58' W 122°15'1 0.8
2014-Dec-18 14:33N 47°59' W 122°14'0 0.0
2014-Dec-17 16:27N 47°59' W 122°13'0 0.0
2014-Dec-17 15:33N 47°59' W 122°13'3 3.1
2014-Dec-17 14:33N 47°57' W 122°17'3 2.9
2014-Dec-17 13:33N 47°59' W 122°13'0 0.5
2014-Dec-17 12:33N 47°59' W 122°14'1 0.1
2014-Dec-17 04:25N 47°59' W 122°13'0 0.2
2014-Dec-17 03:33N 47°59' W 122°13'0 0.0
2014-Dec-15 21:23N 47°59' W 122°13'0 0.4
2014-Dec-15 20:33N 47°59' W 122°14'1 1.0
2014-Dec-15 19:33N 47°58' W 122°15'1 0.0
2014-Dec-14 01:33N 47°59' W 122°14'1 0.5
2014-Dec-14 00:33N 47°59' W 122°13'  
2014-Dec-11 15:33N 47°59' W 122°14'1 1.5
2014-Dec-11 14:33N 47°58' W 122°16'2 0.1
2014-Dec-10 13:33N 47°59' W 122°13'1 1.2
2014-Dec-10 12:33N 47°58' W 122°15'1 0.7
2014-Dec-10 11:33N 47°59' W 122°14'0 0.0
2014-Dec-09 19:32N 47°59' W 122°13'2 2.0
2014-Dec-09 18:32N 47°58' W 122°16'2 2.1
2014-Dec-09 17:33N 47°59' W 122°13'0 0.0
2014-Dec-09 16:33N 47°59' W 122°13'  
Track history (hours):
 
Tides and Currents Weather Stations Pressure Air Temp Water Temp Dewpoint Dewpoint Depression Visibility Wind Speed Wind Dir Waves Ship Positions

Mary Rose Brusco

Owner: Brusco Tug & Barge, Inc., Longview, WA. More information available from US FCC via Universal Licensing System and Coast Guard Vessel Documentation Center.

Last reported at 2014-Dec-19 15:33 UTC. Time now 2014-Dec-20 00:52 UTC.
Position N 47°59' W 122°13'.

Length 20 m; draft 3 m.

Type: Towing. MMSI: 367324840.

Date/timePositionNaut miles runAvg speedWind from/ knotsBaromVisibWave heightAir tempDewpointWater temp
2014-Dec-19 15:33N 47°59' W 122°13'2 1.5
2014-Dec-19 14:32N 47°58' W 122°15'2 1.7
2014-Dec-19 13:33N 47°59' W 122°13'1 0.0
2014-Dec-18 15:34N 47°58' W 122°15'1 0.8
2014-Dec-18 14:33N 47°59' W 122°14'0 0.0
2014-Dec-17 16:27N 47°59' W 122°13'0 0.0
2014-Dec-17 15:33N 47°59' W 122°13'3 3.1
2014-Dec-17 14:33N 47°57' W 122°17'3 2.9
2014-Dec-17 13:33N 47°59' W 122°13'0 0.5
2014-Dec-17 12:33N 47°59' W 122°14'1 0.1
2014-Dec-17 04:25N 47°59' W 122°13'0 0.2
2014-Dec-17 03:33N 47°59' W 122°13'0 0.0
2014-Dec-15 21:23N 47°59' W 122°13'0 0.4
2014-Dec-15 20:33N 47°59' W 122°14'1 1.0
2014-Dec-15 19:33N 47°58' W 122°15'1 0.0
2014-Dec-14 01:33N 47°59' W 122°14'1 0.5
2014-Dec-14 00:33N 47°59' W 122°13'  
2014-Dec-11 15:33N 47°59' W 122°14'1 1.5
2014-Dec-11 14:33N 47°58' W 122°16'2 0.1
2014-Dec-10 13:33N 47°59' W 122°13'1 1.2
2014-Dec-10 12:33N 47°58' W 122°15'1 0.7
2014-Dec-10 11:33N 47°59' W 122°14'0 0.0
2014-Dec-09 19:32N 47°59' W 122°13'2 2.0
2014-Dec-09 18:32N 47°58' W 122°16'2 2.1
2014-Dec-09 17:33N 47°59' W 122°13'0 0.0
2014-Dec-09 16:33N 47°59' W 122°13'  

Dump ship's entire track history